sensor_id;sensor_type;location;lat;lon;timestamp;P1;durP1;ratioP1;P2;durP2;ratioP2
28988;SDS011;16089;59.952;10.818;2023-04-07T00:00:11;7.47;;;3.92;;
28988;SDS011;16089;59.952;10.818;2023-04-07T00:02:37;8.45;;;4.10;;
28988;SDS011;16089;59.952;10.818;2023-04-07T00:05:04;7.93;;;4.13;;
28988;SDS011;16089;59.952;10.818;2023-04-07T00:07:30;6.55;;;4.00;;
28988;SDS011;16089;59.952;10.818;2023-04-07T00:09:56;7.32;;;4.05;;
28988;SDS011;16089;59.952;10.818;2023-04-07T00:12:23;6.97;;;3.45;;
28988;SDS011;16089;59.952;10.818;2023-04-07T00:14:49;5.82;;;3.10;;
28988;SDS011;16089;59.952;10.818;2023-04-07T00:17:17;7.07;;;4.10;;
28988;SDS011;16089;59.952;10.818;2023-04-07T00:19:43;8.30;;;4.68;;
28988;SDS011;16089;59.952;10.818;2023-04-07T00:22:09;9.65;;;4.72;;
28988;SDS011;16089;59.952;10.818;2023-04-07T00:24:36;8.40;;;4.60;;
28988;SDS011;16089;59.952;10.818;2023-04-07T00:27:02;9.65;;;5.18;;
28988;SDS011;16089;59.952;10.818;2023-04-07T00:29:29;7.78;;;4.70;;
28988;SDS011;16089;59.952;10.818;2023-04-07T00:31:55;8.13;;;4.93;;
28988;SDS011;16089;59.952;10.818;2023-04-07T00:34:23;8.35;;;4.63;;
28988;SDS011;16089;59.952;10.818;2023-04-07T00:36:49;8.15;;;4.65;;
28988;SDS011;16089;59.952;10.818;2023-04-07T00:39:16;8.30;;;4.78;;
28988;SDS011;16089;59.952;10.818;2023-04-07T00:41:43;10.80;;;5.22;;
28988;SDS011;16089;59.952;10.818;2023-04-07T00:44:09;10.88;;;4.53;;
28988;SDS011;16089;59.952;10.818;2023-04-07T00:46:35;9.70;;;5.10;;
28988;SDS011;16089;59.952;10.818;2023-04-07T00:49:02;10.00;;;4.38;;
28988;SDS011;16089;59.952;10.818;2023-04-07T00:51:30;8.32;;;4.95;;
28988;SDS011;16089;59.952;10.818;2023-04-07T00:53:56;9.75;;;5.63;;
28988;SDS011;16089;59.952;10.818;2023-04-07T00:56:23;10.30;;;5.70;;
28988;SDS011;16089;59.952;10.818;2023-04-07T00:58:49;8.15;;;4.70;;
28988;SDS011;16089;59.952;10.818;2023-04-07T01:01:18;12.23;;;6.15;;
28988;SDS011;16089;59.952;10.818;2023-04-07T01:03:48;10.27;;;4.80;;
28988;SDS011;16089;59.952;10.818;2023-04-07T01:06:17;10.43;;;5.28;;
28988;SDS011;16089;59.952;10.818;2023-04-07T01:08:48;10.85;;;5.57;;
28988;SDS011;16089;59.952;10.818;2023-04-07T01:11:18;7.78;;;4.40;;
28988;SDS011;16089;59.952;10.818;2023-04-07T01:13:45;9.10;;;4.45;;
28988;SDS011;16089;59.952;10.818;2023-04-07T01:16:15;11.93;;;5.03;;
28988;SDS011;16089;59.952;10.818;2023-04-07T01:18:42;8.77;;;4.95;;
28988;SDS011;16089;59.952;10.818;2023-04-07T01:21:10;10.18;;;5.13;;
28988;SDS011;16089;59.952;10.818;2023-04-07T01:23:58;9.73;;;5.45;;
28988;SDS011;16089;59.952;10.818;2023-04-07T01:26:27;7.80;;;4.53;;
28988;SDS011;16089;59.952;10.818;2023-04-07T01:29:06;9.30;;;4.03;;
28988;SDS011;16089;59.952;10.818;2023-04-07T01:31:37;9.27;;;4.63;;
28988;SDS011;16089;59.952;10.818;2023-04-07T01:34:04;7.90;;;4.65;;
28988;SDS011;16089;59.952;10.818;2023-04-07T01:36:31;9.63;;;5.15;;
28988;SDS011;16089;59.952;10.818;2023-04-07T01:38:58;10.13;;;5.10;;
28988;SDS011;16089;59.952;10.818;2023-04-07T01:41:25;9.00;;;4.10;;
28988;SDS011;16089;59.952;10.818;2023-04-07T01:43:52;7.88;;;4.32;;
28988;SDS011;16089;59.952;10.818;2023-04-07T01:46:19;9.18;;;4.55;;
28988;SDS011;16089;59.952;10.818;2023-04-07T01:48:47;9.65;;;4.78;;
28988;SDS011;16089;59.952;10.818;2023-04-07T01:51:13;8.43;;;4.55;;
28988;SDS011;16089;59.952;10.818;2023-04-07T01:53:43;9.18;;;4.40;;
28988;SDS011;16089;59.952;10.818;2023-04-07T01:56:10;9.23;;;4.82;;
28988;SDS011;16089;59.952;10.818;2023-04-07T01:58:36;9.43;;;4.60;;
28988;SDS011;16089;59.952;10.818;2023-04-07T02:01:02;11.07;;;5.35;;
28988;SDS011;16089;59.952;10.818;2023-04-07T02:03:29;9.38;;;4.43;;
28988;SDS011;16089;59.952;10.818;2023-04-07T02:06:00;8.68;;;4.80;;
28988;SDS011;16089;59.952;10.818;2023-04-07T02:08:29;10.63;;;4.97;;
28988;SDS011;16089;59.952;10.818;2023-04-07T02:10:56;9.25;;;4.22;;
28988;SDS011;16089;59.952;10.818;2023-04-07T02:13:23;8.23;;;4.85;;
28988;SDS011;16089;59.952;10.818;2023-04-07T02:15:50;9.43;;;4.10;;
28988;SDS011;16089;59.952;10.818;2023-04-07T02:18:17;9.63;;;4.07;;
28988;SDS011;16089;59.952;10.818;2023-04-07T02:20:45;9.07;;;4.80;;
28988;SDS011;16089;59.952;10.818;2023-04-07T02:23:14;9.68;;;4.75;;
28988;SDS011;16089;59.952;10.818;2023-04-07T02:25:40;7.28;;;3.70;;
28988;SDS011;16089;59.952;10.818;2023-04-07T02:28:06;7.00;;;3.90;;
28988;SDS011;16089;59.952;10.818;2023-04-07T02:30:33;12.60;;;4.75;;
28988;SDS011;16089;59.952;10.818;2023-04-07T02:33:00;9.60;;;4.72;;
28988;SDS011;16089;59.952;10.818;2023-04-07T02:35:26;7.95;;;3.90;;
28988;SDS011;16089;59.952;10.818;2023-04-07T02:37:52;7.15;;;3.95;;
28988;SDS011;16089;59.952;10.818;2023-04-07T02:40:20;9.32;;;3.90;;
28988;SDS011;16089;59.952;10.818;2023-04-07T02:42:47;7.70;;;4.18;;
28988;SDS011;16089;59.952;10.818;2023-04-07T02:45:13;9.90;;;3.50;;
28988;SDS011;16089;59.952;10.818;2023-04-07T02:47:40;8.82;;;4.07;;
28988;SDS011;16089;59.952;10.818;2023-04-07T02:50:06;7.70;;;3.97;;
28988;SDS011;16089;59.952;10.818;2023-04-07T02:52:33;8.93;;;4.15;;
28988;SDS011;16089;59.952;10.818;2023-04-07T02:54:59;7.57;;;3.95;;
28988;SDS011;16089;59.952;10.818;2023-04-07T02:57:27;8.30;;;3.97;;
28988;SDS011;16089;59.952;10.818;2023-04-07T02:59:53;9.90;;;4.00;;
28988;SDS011;16089;59.952;10.818;2023-04-07T03:02:22;7.88;;;4.07;;
28988;SDS011;16089;59.952;10.818;2023-04-07T03:04:49;6.18;;;3.58;;
28988;SDS011;16089;59.952;10.818;2023-04-07T03:07:15;7.47;;;3.47;;
28988;SDS011;16089;59.952;10.818;2023-04-07T03:09:42;9.05;;;4.38;;
28988;SDS011;16089;59.952;10.818;2023-04-07T03:12:08;8.02;;;3.50;;
28988;SDS011;16089;59.952;10.818;2023-04-07T03:14:36;8.68;;;3.22;;
28988;SDS011;16089;59.952;10.818;2023-04-07T03:17:02;11.57;;;4.30;;
28988;SDS011;16089;59.952;10.818;2023-04-07T03:19:29;7.30;;;4.20;;
28988;SDS011;16089;59.952;10.818;2023-04-07T03:21:55;7.25;;;4.00;;
28988;SDS011;16089;59.952;10.818;2023-04-07T03:24:22;9.05;;;3.92;;
28988;SDS011;16089;59.952;10.818;2023-04-07T03:26:48;6.43;;;3.72;;
28988;SDS011;16089;59.952;10.818;2023-04-07T03:29:15;9.80;;;4.10;;
28988;SDS011;16089;59.952;10.818;2023-04-07T03:31:43;10.70;;;4.68;;
28988;SDS011;16089;59.952;10.818;2023-04-07T03:34:09;6.90;;;3.40;;
28988;SDS011;16089;59.952;10.818;2023-04-07T03:36:35;8.07;;;3.92;;
28988;SDS011;16089;59.952;10.818;2023-04-07T03:39:02;9.77;;;3.70;;
28988;SDS011;16089;59.952;10.818;2023-04-07T03:41:28;8.15;;;3.67;;
28988;SDS011;16089;59.952;10.818;2023-04-07T03:43:55;9.38;;;4.68;;
28988;SDS011;16089;59.952;10.818;2023-04-07T03:46:22;8.40;;;4.05;;
28988;SDS011;16089;59.952;10.818;2023-04-07T03:48:52;7.60;;;3.85;;
28988;SDS011;16089;59.952;10.818;2023-04-07T03:51:19;9.52;;;4.45;;
28988;SDS011;16089;59.952;10.818;2023-04-07T03:53:46;8.13;;;3.90;;
28988;SDS011;16089;59.952;10.818;2023-04-07T03:56:12;7.97;;;4.20;;
28988;SDS011;16089;59.952;10.818;2023-04-07T03:58:39;9.65;;;4.60;;
28988;SDS011;16089;59.952;10.818;2023-04-07T04:01:06;11.55;;;3.83;;
28988;SDS011;16089;59.952;10.818;2023-04-07T04:03:33;7.80;;;3.67;;
28988;SDS011;16089;59.952;10.818;2023-04-07T04:06:01;10.40;;;4.35;;
28988;SDS011;16089;59.952;10.818;2023-04-07T04:08:27;9.93;;;3.95;;
28988;SDS011;16089;59.952;10.818;2023-04-07T04:10:54;10.15;;;4.47;;
28988;SDS011;16089;59.952;10.818;2023-04-07T04:13:21;10.68;;;4.18;;
28988;SDS011;16089;59.952;10.818;2023-04-07T04:15:47;7.57;;;3.95;;
28988;SDS011;16089;59.952;10.818;2023-04-07T04:18:14;6.78;;;3.30;;
28988;SDS011;16089;59.952;10.818;2023-04-07T04:20:40;8.52;;;4.05;;
28988;SDS011;16089;59.952;10.818;2023-04-07T04:23:08;7.97;;;3.83;;
28988;SDS011;16089;59.952;10.818;2023-04-07T04:25:34;9.20;;;3.92;;
28988;SDS011;16089;59.952;10.818;2023-04-07T04:28:03;9.60;;;4.13;;
28988;SDS011;16089;59.952;10.818;2023-04-07T04:30:30;9.43;;;4.15;;
28988;SDS011;16089;59.952;10.818;2023-04-07T04:32:56;7.28;;;3.47;;
28988;SDS011;16089;59.952;10.818;2023-04-07T04:35:22;6.90;;;3.92;;
28988;SDS011;16089;59.952;10.818;2023-04-07T04:37:50;7.72;;;3.85;;
28988;SDS011;16089;59.952;10.818;2023-04-07T04:40:18;9.18;;;4.03;;
28988;SDS011;16089;59.952;10.818;2023-04-07T04:42:44;7.72;;;4.35;;
28988;SDS011;16089;59.952;10.818;2023-04-07T04:45:10;8.80;;;3.42;;
28988;SDS011;16089;59.952;10.818;2023-04-07T04:47:37;8.20;;;3.47;;
28988;SDS011;16089;59.952;10.818;2023-04-07T04:50:05;8.55;;;3.60;;
28988;SDS011;16089;59.952;10.818;2023-04-07T04:52:31;7.15;;;4.00;;
28988;SDS011;16089;59.952;10.818;2023-04-07T04:54:58;8.13;;;4.07;;
28988;SDS011;16089;59.952;10.818;2023-04-07T04:57:26;8.55;;;3.78;;
28988;SDS011;16089;59.952;10.818;2023-04-07T04:59:52;9.43;;;4.22;;
28988;SDS011;16089;59.952;10.818;2023-04-07T05:02:18;7.82;;;4.03;;
28988;SDS011;16089;59.952;10.818;2023-04-07T05:04:45;7.68;;;4.03;;
28988;SDS011;16089;59.952;10.818;2023-04-07T05:07:11;9.57;;;4.50;;
28988;SDS011;16089;59.952;10.818;2023-04-07T05:09:38;9.02;;;4.03;;
28988;SDS011;16089;59.952;10.818;2023-04-07T05:12:04;9.10;;;4.50;;
28988;SDS011;16089;59.952;10.818;2023-04-07T05:14:32;9.48;;;4.32;;
28988;SDS011;16089;59.952;10.818;2023-04-07T05:16:58;9.38;;;4.15;;
28988;SDS011;16089;59.952;10.818;2023-04-07T05:19:25;8.48;;;4.40;;
28988;SDS011;16089;59.952;10.818;2023-04-07T05:21:53;10.68;;;5.90;;
28988;SDS011;16089;59.952;10.818;2023-04-07T05:24:19;12.75;;;5.78;;
28988;SDS011;16089;59.952;10.818;2023-04-07T05:26:46;10.57;;;5.13;;
28988;SDS011;16089;59.952;10.818;2023-04-07T05:29:12;12.48;;;5.82;;
28988;SDS011;16089;59.952;10.818;2023-04-07T05:31:40;10.73;;;5.68;;
28988;SDS011;16089;59.952;10.818;2023-04-07T05:34:06;11.90;;;5.88;;
28988;SDS011;16089;59.952;10.818;2023-04-07T05:36:33;12.05;;;5.90;;
28988;SDS011;16089;59.952;10.818;2023-04-07T05:39:00;12.00;;;5.88;;
28988;SDS011;16089;59.952;10.818;2023-04-07T05:41:26;11.77;;;6.20;;
28988;SDS011;16089;59.952;10.818;2023-04-07T05:43:52;11.60;;;5.72;;
28988;SDS011;16089;59.952;10.818;2023-04-07T05:46:19;10.32;;;5.75;;
28988;SDS011;16089;59.952;10.818;2023-04-07T05:48:46;12.18;;;6.15;;
28988;SDS011;16089;59.952;10.818;2023-04-07T05:51:13;13.00;;;5.97;;
28988;SDS011;16089;59.952;10.818;2023-04-07T05:53:39;12.88;;;6.40;;
28988;SDS011;16089;59.952;10.818;2023-04-07T05:56:06;10.05;;;6.50;;
28988;SDS011;16089;59.952;10.818;2023-04-07T05:58:32;11.88;;;6.63;;
28988;SDS011;16089;59.952;10.818;2023-04-07T06:00:58;12.40;;;7.53;;
28988;SDS011;16089;59.952;10.818;2023-04-07T06:03:25;11.45;;;6.40;;
28988;SDS011;16089;59.952;10.818;2023-04-07T06:05:53;13.18;;;7.57;;
28988;SDS011;16089;59.952;10.818;2023-04-07T06:08:19;11.93;;;7.05;;
28988;SDS011;16089;59.952;10.818;2023-04-07T06:10:45;13.10;;;7.47;;
28988;SDS011;16089;59.952;10.818;2023-04-07T06:13:12;12.32;;;6.85;;
28988;SDS011;16089;59.952;10.818;2023-04-07T06:15:38;14.07;;;7.82;;
28988;SDS011;16089;59.952;10.818;2023-04-07T06:18:04;11.23;;;6.90;;
28988;SDS011;16089;59.952;10.818;2023-04-07T06:20:31;11.50;;;6.72;;
28988;SDS011;16089;59.952;10.818;2023-04-07T06:22:58;11.32;;;6.30;;
28988;SDS011;16089;59.952;10.818;2023-04-07T06:25:25;13.15;;;7.10;;
28988;SDS011;16089;59.952;10.818;2023-04-07T06:27:52;15.80;;;6.70;;
28988;SDS011;16089;59.952;10.818;2023-04-07T06:30:18;12.40;;;6.85;;
28988;SDS011;16089;59.952;10.818;2023-04-07T06:32:45;13.57;;;6.85;;
28988;SDS011;16089;59.952;10.818;2023-04-07T06:35:11;13.38;;;7.57;;
28988;SDS011;16089;59.952;10.818;2023-04-07T06:37:37;12.02;;;6.15;;
28988;SDS011;16089;59.952;10.818;2023-04-07T06:40:06;15.00;;;7.07;;
28988;SDS011;16089;59.952;10.818;2023-04-07T06:42:33;12.15;;;6.28;;
28988;SDS011;16089;59.952;10.818;2023-04-07T06:44:59;14.88;;;7.00;;
28988;SDS011;16089;59.952;10.818;2023-04-07T06:47:25;11.25;;;5.90;;
28988;SDS011;16089;59.952;10.818;2023-04-07T06:49:52;10.40;;;5.90;;
28988;SDS011;16089;59.952;10.818;2023-04-07T06:52:18;10.82;;;6.43;;
28988;SDS011;16089;59.952;10.818;2023-04-07T06:54:44;12.88;;;5.82;;
28988;SDS011;16089;59.952;10.818;2023-04-07T06:57:12;13.90;;;6.93;;
28988;SDS011;16089;59.952;10.818;2023-04-07T06:59:39;13.98;;;5.68;;
28988;SDS011;16089;59.952;10.818;2023-04-07T07:02:05;10.40;;;5.88;;
28988;SDS011;16089;59.952;10.818;2023-04-07T07:04:32;14.75;;;6.45;;
28988;SDS011;16089;59.952;10.818;2023-04-07T07:06:59;12.45;;;6.57;;
28988;SDS011;16089;59.952;10.818;2023-04-07T07:09:25;10.45;;;6.38;;
28988;SDS011;16089;59.952;10.818;2023-04-07T07:11:52;11.52;;;5.93;;
28988;SDS011;16089;59.952;10.818;2023-04-07T07:14:20;14.73;;;6.32;;
28988;SDS011;16089;59.952;10.818;2023-04-07T07:16:46;11.90;;;6.85;;
28988;SDS011;16089;59.952;10.818;2023-04-07T07:19:13;10.35;;;6.40;;
28988;SDS011;16089;59.952;10.818;2023-04-07T07:21:39;9.85;;;5.90;;
28988;SDS011;16089;59.952;10.818;2023-04-07T07:24:06;12.20;;;6.78;;
28988;SDS011;16089;59.952;10.818;2023-04-07T07:26:32;12.68;;;6.60;;
28988;SDS011;16089;59.952;10.818;2023-04-07T07:28:58;13.38;;;7.30;;
28988;SDS011;16089;59.952;10.818;2023-04-07T07:31:26;14.20;;;8.05;;
28988;SDS011;16089;59.952;10.818;2023-04-07T07:33:53;13.77;;;6.90;;
28988;SDS011;16089;59.952;10.818;2023-04-07T07:36:19;11.70;;;6.80;;
28988;SDS011;16089;59.952;10.818;2023-04-07T07:38:46;15.52;;;7.72;;
28988;SDS011;16089;59.952;10.818;2023-04-07T07:41:12;13.40;;;6.55;;
28988;SDS011;16089;59.952;10.818;2023-04-07T07:43:38;11.93;;;6.78;;
28988;SDS011;16089;59.952;10.818;2023-04-07T07:46:05;10.57;;;6.70;;
28988;SDS011;16089;59.952;10.818;2023-04-07T07:48:32;11.02;;;6.95;;
28988;SDS011;16089;59.952;10.818;2023-04-07T07:50:59;13.70;;;7.00;;
28988;SDS011;16089;59.952;10.818;2023-04-07T07:53:25;14.45;;;7.18;;
28988;SDS011;16089;59.952;10.818;2023-04-07T07:55:51;14.55;;;7.43;;
28988;SDS011;16089;59.952;10.818;2023-04-07T07:58:20;9.98;;;6.05;;
28988;SDS011;16089;59.952;10.818;2023-04-07T08:00:46;11.77;;;6.55;;
28988;SDS011;16089;59.952;10.818;2023-04-07T08:03:12;12.13;;;6.65;;
28988;SDS011;16089;59.952;10.818;2023-04-07T08:05:40;13.23;;;6.28;;
28988;SDS011;16089;59.952;10.818;2023-04-07T08:08:06;15.00;;;6.97;;
28988;SDS011;16089;59.952;10.818;2023-04-07T08:10:33;10.40;;;6.40;;
28988;SDS011;16089;59.952;10.818;2023-04-07T08:12:59;12.18;;;6.15;;
28988;SDS011;16089;59.952;10.818;2023-04-07T08:15:25;10.65;;;5.88;;
28988;SDS011;16089;59.952;10.818;2023-04-07T08:17:52;12.10;;;6.50;;
28988;SDS011;16089;59.952;10.818;2023-04-07T08:20:18;12.20;;;6.82;;
28988;SDS011;16089;59.952;10.818;2023-04-07T08:22:46;12.82;;;6.68;;
28988;SDS011;16089;59.952;10.818;2023-04-07T08:25:13;12.30;;;6.45;;
28988;SDS011;16089;59.952;10.818;2023-04-07T08:27:39;10.15;;;5.80;;
28988;SDS011;16089;59.952;10.818;2023-04-07T08:30:06;11.50;;;6.53;;
28988;SDS011;16089;59.952;10.818;2023-04-07T08:32:33;12.13;;;6.05;;
28988;SDS011;16089;59.952;10.818;2023-04-07T08:34:59;10.02;;;6.32;;
28988;SDS011;16089;59.952;10.818;2023-04-07T08:37:26;12.40;;;6.15;;
28988;SDS011;16089;59.952;10.818;2023-04-07T08:39:53;13.18;;;6.13;;
28988;SDS011;16089;59.952;10.818;2023-04-07T08:42:20;13.20;;;6.43;;
28988;SDS011;16089;59.952;10.818;2023-04-07T08:44:48;10.60;;;5.80;;
28988;SDS011;16089;59.952;10.818;2023-04-07T08:47:15;12.43;;;5.90;;
28988;SDS011;16089;59.952;10.818;2023-04-07T08:49:42;14.55;;;5.97;;
28988;SDS011;16089;59.952;10.818;2023-04-07T08:52:11;11.52;;;5.93;;
28988;SDS011;16089;59.952;10.818;2023-04-07T08:54:40;13.25;;;6.18;;
28988;SDS011;16089;59.952;10.818;2023-04-07T08:57:08;11.25;;;6.07;;
28988;SDS011;16089;59.952;10.818;2023-04-07T08:59:35;11.48;;;5.88;;
28988;SDS011;16089;59.952;10.818;2023-04-07T09:02:01;11.00;;;5.93;;
28988;SDS011;16089;59.952;10.818;2023-04-07T09:04:30;10.35;;;6.15;;
28988;SDS011;16089;59.952;10.818;2023-04-07T09:06:56;12.20;;;6.10;;
28988;SDS011;16089;59.952;10.818;2023-04-07T09:09:24;10.20;;;6.00;;
28988;SDS011;16089;59.952;10.818;2023-04-07T09:11:50;11.95;;;6.20;;
28988;SDS011;16089;59.952;10.818;2023-04-07T09:14:18;12.23;;;6.03;;
28988;SDS011;16089;59.952;10.818;2023-04-07T09:16:46;12.75;;;7.35;;
28988;SDS011;16089;59.952;10.818;2023-04-07T09:19:12;10.75;;;6.10;;
28988;SDS011;16089;59.952;10.818;2023-04-07T09:21:48;14.38;;;6.78;;
28988;SDS011;16089;59.952;10.818;2023-04-07T09:24:21;11.38;;;6.30;;
28988;SDS011;16089;59.952;10.818;2023-04-07T09:26:48;11.07;;;5.93;;
28988;SDS011;16089;59.952;10.818;2023-04-07T09:29:18;11.35;;;5.95;;
28988;SDS011;16089;59.952;10.818;2023-04-07T09:31:46;11.38;;;6.10;;
28988;SDS011;16089;59.952;10.818;2023-04-07T09:34:22;13.32;;;6.30;;
28988;SDS011;16089;59.952;10.818;2023-04-07T09:36:49;15.32;;;7.28;;
28988;SDS011;16089;59.952;10.818;2023-04-07T09:39:15;10.13;;;5.85;;
28988;SDS011;16089;59.952;10.818;2023-04-07T09:41:42;13.57;;;6.78;;
28988;SDS011;16089;59.952;10.818;2023-04-07T09:44:08;10.55;;;6.50;;
28988;SDS011;16089;59.952;10.818;2023-04-07T09:46:36;15.85;;;7.00;;
28988;SDS011;16089;59.952;10.818;2023-04-07T09:49:13;14.15;;;6.93;;
28988;SDS011;16089;59.952;10.818;2023-04-07T09:51:46;14.50;;;7.38;;
28988;SDS011;16089;59.952;10.818;2023-04-07T09:54:17;13.55;;;7.47;;
28988;SDS011;16089;59.952;10.818;2023-04-07T09:56:57;16.27;;;7.45;;
28988;SDS011;16089;59.952;10.818;2023-04-07T09:59:23;13.05;;;6.97;;
28988;SDS011;16089;59.952;10.818;2023-04-07T10:01:52;14.90;;;7.65;;
28988;SDS011;16089;59.952;10.818;2023-04-07T10:04:18;13.85;;;6.95;;
28988;SDS011;16089;59.952;10.818;2023-04-07T10:06:44;13.13;;;7.15;;
28988;SDS011;16089;59.952;10.818;2023-04-07T10:09:11;17.67;;;7.35;;
28988;SDS011;16089;59.952;10.818;2023-04-07T10:11:37;14.93;;;7.43;;
28988;SDS011;16089;59.952;10.818;2023-04-07T10:14:04;12.95;;;7.43;;
28988;SDS011;16089;59.952;10.818;2023-04-07T10:16:31;11.63;;;6.97;;
28988;SDS011;16089;59.952;10.818;2023-04-07T10:18:59;13.48;;;6.78;;
28988;SDS011;16089;59.952;10.818;2023-04-07T10:21:25;16.02;;;6.82;;
28988;SDS011;16089;59.952;10.818;2023-04-07T10:23:55;11.85;;;6.88;;
28988;SDS011;16089;59.952;10.818;2023-04-07T10:26:25;13.38;;;7.43;;
28988;SDS011;16089;59.952;10.818;2023-04-07T10:28:54;12.45;;;7.10;;
28988;SDS011;16089;59.952;10.818;2023-04-07T10:31:22;13.40;;;6.75;;
28988;SDS011;16089;59.952;10.818;2023-04-07T10:33:49;12.90;;;6.25;;
28988;SDS011;16089;59.952;10.818;2023-04-07T10:36:18;10.95;;;6.55;;
28988;SDS011;16089;59.952;10.818;2023-04-07T10:41:30;12.13;;;6.25;;
28988;SDS011;16089;59.952;10.818;2023-04-07T10:43:57;12.32;;;6.20;;
28988;SDS011;16089;59.952;10.818;2023-04-07T10:46:23;11.65;;;6.00;;
28988;SDS011;16089;59.952;10.818;2023-04-07T10:51:32;10.88;;;6.28;;
28988;SDS011;16089;59.952;10.818;2023-04-07T10:59:27;11.32;;;6.07;;
28988;SDS011;16089;59.952;10.818;2023-04-07T11:02:02;14.98;;;6.60;;
28988;SDS011;16089;59.952;10.818;2023-04-07T11:04:49;14.65;;;7.00;;
28988;SDS011;16089;59.952;10.818;2023-04-07T11:07:16;11.38;;;6.57;;
28988;SDS011;16089;59.952;10.818;2023-04-07T11:09:43;16.67;;;7.97;;
28988;SDS011;16089;59.952;10.818;2023-04-07T11:12:20;11.82;;;6.43;;
28988;SDS011;16089;59.952;10.818;2023-04-07T11:14:47;12.60;;;5.90;;
28988;SDS011;16089;59.952;10.818;2023-04-07T11:17:13;11.25;;;5.68;;
28988;SDS011;16089;59.952;10.818;2023-04-07T11:19:49;11.13;;;6.25;;
28988;SDS011;16089;59.952;10.818;2023-04-07T11:22:17;11.68;;;6.85;;
28988;SDS011;16089;59.952;10.818;2023-04-07T11:24:44;10.25;;;6.55;;
28988;SDS011;16089;59.952;10.818;2023-04-07T11:27:11;12.27;;;6.70;;
28988;SDS011;16089;59.952;10.818;2023-04-07T11:29:37;11.07;;;6.90;;
28988;SDS011;16089;59.952;10.818;2023-04-07T11:32:04;15.07;;;7.28;;
28988;SDS011;16089;59.952;10.818;2023-04-07T11:34:30;15.32;;;7.22;;
28988;SDS011;16089;59.952;10.818;2023-04-07T11:36:57;13.90;;;6.90;;
28988;SDS011;16089;59.952;10.818;2023-04-07T11:39:27;14.25;;;7.30;;
28988;SDS011;16089;59.952;10.818;2023-04-07T11:41:55;14.25;;;7.45;;
28988;SDS011;16089;59.952;10.818;2023-04-07T11:44:22;13.05;;;6.30;;
28988;SDS011;16089;59.952;10.818;2023-04-07T11:46:54;14.48;;;7.25;;
28988;SDS011;16089;59.952;10.818;2023-04-07T11:49:20;13.38;;;6.80;;
28988;SDS011;16089;59.952;10.818;2023-04-07T11:51:47;13.63;;;7.25;;
28988;SDS011;16089;59.952;10.818;2023-04-07T11:54:14;14.70;;;6.65;;
28988;SDS011;16089;59.952;10.818;2023-04-07T11:56:43;13.23;;;7.90;;
28988;SDS011;16089;59.952;10.818;2023-04-07T11:59:17;14.40;;;6.72;;
28988;SDS011;16089;59.952;10.818;2023-04-07T12:01:44;12.55;;;6.60;;
28988;SDS011;16089;59.952;10.818;2023-04-07T12:04:11;14.98;;;7.00;;
28988;SDS011;16089;59.952;10.818;2023-04-07T12:06:38;14.65;;;7.75;;
28988;SDS011;16089;59.952;10.818;2023-04-07T12:09:06;12.40;;;7.25;;
28988;SDS011;16089;59.952;10.818;2023-04-07T12:11:33;11.15;;;6.55;;
28988;SDS011;16089;59.952;10.818;2023-04-07T12:14:01;12.60;;;6.72;;
28988;SDS011;16089;59.952;10.818;2023-04-07T12:16:29;12.50;;;6.72;;
28988;SDS011;16089;59.952;10.818;2023-04-07T12:18:55;13.43;;;6.57;;
28988;SDS011;16089;59.952;10.818;2023-04-07T12:21:21;13.30;;;6.57;;
28988;SDS011;16089;59.952;10.818;2023-04-07T12:23:49;12.75;;;7.18;;
28988;SDS011;16089;59.952;10.818;2023-04-07T12:26:16;10.93;;;6.63;;
28988;SDS011;16089;59.952;10.818;2023-04-07T12:28:42;13.57;;;6.90;;
28988;SDS011;16089;59.952;10.818;2023-04-07T12:31:10;10.95;;;7.03;;
28988;SDS011;16089;59.952;10.818;2023-04-07T12:33:37;12.13;;;6.30;;
28988;SDS011;16089;59.952;10.818;2023-04-07T12:36:03;13.13;;;6.75;;
28988;SDS011;16089;59.952;10.818;2023-04-07T12:38:30;12.05;;;6.28;;
28988;SDS011;16089;59.952;10.818;2023-04-07T12:40:56;12.63;;;6.38;;
28988;SDS011;16089;59.952;10.818;2023-04-07T12:43:27;13.05;;;6.72;;
28988;SDS011;16089;59.952;10.818;2023-04-07T12:45:53;11.35;;;6.10;;
28988;SDS011;16089;59.952;10.818;2023-04-07T12:48:21;10.30;;;6.18;;
28988;SDS011;16089;59.952;10.818;2023-04-07T12:50:47;11.07;;;6.25;;
28988;SDS011;16089;59.952;10.818;2023-04-07T12:53:14;14.23;;;7.45;;
28988;SDS011;16089;59.952;10.818;2023-04-07T12:55:40;12.63;;;7.35;;
28988;SDS011;16089;59.952;10.818;2023-04-07T12:58:07;13.32;;;7.40;;
28988;SDS011;16089;59.952;10.818;2023-04-07T13:00:33;13.55;;;7.50;;
28988;SDS011;16089;59.952;10.818;2023-04-07T13:03:00;10.20;;;6.68;;
28988;SDS011;16089;59.952;10.818;2023-04-07T13:05:28;13.35;;;7.63;;
28988;SDS011;16089;59.952;10.818;2023-04-07T13:07:55;11.82;;;7.05;;
28988;SDS011;16089;59.952;10.818;2023-04-07T13:10:21;12.30;;;7.47;;
28988;SDS011;16089;59.952;10.818;2023-04-07T13:12:47;11.07;;;6.50;;
28988;SDS011;16089;59.952;10.818;2023-04-07T13:15:14;10.35;;;6.05;;
28988;SDS011;16089;59.952;10.818;2023-04-07T13:17:40;14.98;;;6.93;;
28988;SDS011;16089;59.952;10.818;2023-04-07T13:20:07;12.10;;;7.32;;
28988;SDS011;16089;59.952;10.818;2023-04-07T13:22:34;12.02;;;6.63;;
28988;SDS011;16089;59.952;10.818;2023-04-07T13:25:01;10.55;;;6.20;;
28988;SDS011;16089;59.952;10.818;2023-04-07T13:27:27;12.30;;;6.18;;
28988;SDS011;16089;59.952;10.818;2023-04-07T13:29:53;10.88;;;6.63;;
28988;SDS011;16089;59.952;10.818;2023-04-07T13:32:20;11.65;;;6.40;;
28988;SDS011;16089;59.952;10.818;2023-04-07T13:34:47;11.98;;;5.53;;
28988;SDS011;16089;59.952;10.818;2023-04-07T13:37:13;9.25;;;5.35;;
28988;SDS011;16089;59.952;10.818;2023-04-07T13:39:42;11.77;;;6.30;;
28988;SDS011;16089;59.952;10.818;2023-04-07T13:42:08;11.52;;;5.60;;
28988;SDS011;16089;59.952;10.818;2023-04-07T13:44:34;9.55;;;5.22;;
28988;SDS011;16089;59.952;10.818;2023-04-07T13:47:01;11.82;;;5.43;;
28988;SDS011;16089;59.952;10.818;2023-04-07T13:49:27;12.02;;;5.32;;
28988;SDS011;16089;59.952;10.818;2023-04-07T13:51:54;10.48;;;5.80;;
28988;SDS011;16089;59.952;10.818;2023-04-07T13:54:20;12.40;;;5.53;;
28988;SDS011;16089;59.952;10.818;2023-04-07T13:56:48;10.15;;;5.38;;
28988;SDS011;16089;59.952;10.818;2023-04-07T13:59:15;9.88;;;5.90;;
28988;SDS011;16089;59.952;10.818;2023-04-07T14:01:41;9.25;;;5.50;;
28988;SDS011;16089;59.952;10.818;2023-04-07T14:04:07;9.35;;;4.97;;
28988;SDS011;16089;59.952;10.818;2023-04-07T14:06:34;8.98;;;5.10;;
28988;SDS011;16089;59.952;10.818;2023-04-07T14:09:01;9.98;;;4.93;;
28988;SDS011;16089;59.952;10.818;2023-04-07T14:11:27;9.75;;;4.45;;
28988;SDS011;16089;59.952;10.818;2023-04-07T14:13:55;11.90;;;5.10;;
28988;SDS011;16089;59.952;10.818;2023-04-07T14:16:22;9.73;;;4.97;;
28988;SDS011;16089;59.952;10.818;2023-04-07T14:18:48;11.25;;;4.65;;
28988;SDS011;16089;59.952;10.818;2023-04-07T14:21:15;8.23;;;4.80;;
28988;SDS011;16089;59.952;10.818;2023-04-07T14:23:42;8.85;;;4.82;;
28988;SDS011;16089;59.952;10.818;2023-04-07T14:26:08;11.05;;;4.38;;
28988;SDS011;16089;59.952;10.818;2023-04-07T14:28:35;8.73;;;4.60;;
28988;SDS011;16089;59.952;10.818;2023-04-07T14:31:02;9.00;;;4.25;;
28988;SDS011;16089;59.952;10.818;2023-04-07T14:33:29;9.85;;;4.32;;
28988;SDS011;16089;59.952;10.818;2023-04-07T14:35:55;7.45;;;4.35;;